Terminal Aerodrome Forecast
Issued by NWS

Home | Current Version | Previous Version | Text Only | Print | Product List | Glossary On
Versions: 1 2 3 4 5 6 7 8 9 10 11 12 13
000
FTUS41 KCAR 050531
TAFPQI
TAF
KPQI 050531Z 0506/0606 VRB03KT P6SM BKN250
     FM051600 29005KT P6SM VCTS SCT030 BKN040CB
     FM051800 30007KT P6SM BKN045
     FM052300 VRB03KT P6SM BKN250
      AMD LTD TO CLD VIS AND WIND=

USA.gov is the U.S. government's official web portal to all federal, state and local government web resources and services.